ハバロフスク の空港の天気 - METARとTAF

ハバロフスク空港 ( UHHH / KHV ) - ロシア ハバロフスク
飛行場実況気象(Metar)
観測時間11/22 22:30 VLAT (11/22 12:30 UTC)
風向・風速南西 5m/s
視程10km以上
天気現象弱いしゅう雪
全天の8割程度の雲 雲底高度 760m
気温-11℃
湿度85%
気圧1007hPa
METARUHHH 221230Z 23005MPS 9999 -SHSN BKN025CB M11/M13 Q1007 R23L/490550 NOSIG RMK QFE749/0999
過去の天気等 Google飛行場航空写真 Wunderground天気予報

過去48時間のMETAR

飛行場予報(TAF)
発表時間: 11/22 20:50 VLAT (11/22 10:50 UTC)
予報対象時間: 22日22時 VLAT ~ 24日4時 VLAT
風向・風速南西 5m/s
視程10km以上
全天の4割程度の雲 雲底高度 300m
全天の4割程度の積乱雲 雲底高度 610m
22日22時 VLAT ~ 23日4時 VLAT に一時的に
風向・風速西南西 8m/s
視程2,000m
天気現象しゅう雪 低い地吹雪
全天の4割程度の雲 雲底高度 180m
全天の8割程度の積乱雲 雲底高度 610m
23日10時 VLAT から
風向・風速西 5m/s
視程10km以上
全天の4割程度の積乱雲 雲底高度 610m
23日10時 VLAT ~ 23日16時 VLAT に一時的に
風向・風速北西 8m/s
視程2,500m
天気現象弱いしゅう雪
全天の4割程度の雲 雲底高度 210m
全天の4割程度の積乱雲 雲底高度 610m
TAF UHHH 221050Z 2212/2318 22005MPS 9999 SCT010 SCT020CB
TEMPO 2212/2218 24008MPS 2000 SHSN DRSN SCT006 BKN020CB
FM230000 27005MPS 9999 SCT020CB
TEMPO 2300/2306 31008MPS 2500 -SHSN SCT007 SCT020CB